Time;durP1;ratioP1;P1;durP2;ratioP2;P2;SDS_P1;SDS_P2;PMS_P1;PMS_P2;Temp;Humidity;BMP_temperature;BMP_pressure;BME280_temperature;BME280_humidity;BME280_pressure;Samples;Min_cycle;Max_cycle;Signal;HPM_P1;HPM_P2
2022/04/09 00:02:10;;;;;;;0.20;0.20;;;2.60;99.90;;;2.79;nan;99223.09;4971534;28;20211;-68
2022/04/09 00:04:37;;;;;;;0.20;0.20;;;2.70;99.90;;;2.83;nan;99235.66;4974564;28;20680;-68
2022/04/09 00:07:04;;;;;;;0.30;0.30;;;2.70;99.90;;;2.90;nan;99249.00;4956027;28;20728;-68
2022/04/09 00:09:31;;;;;;;0.20;0.20;;;2.80;99.90;;;2.92;nan;99250.56;4968743;28;20204;-68
2022/04/09 00:11:58;;;;;;;0.20;0.20;;;2.80;99.90;;;2.98;nan;99259.69;4969704;28;20209;-67
2022/04/09 00:14:25;;;;;;;0.20;0.20;;;2.80;99.90;;;3.01;nan;99252.56;4973511;28;20204;-68
2022/04/09 00:16:52;;;;;;;0.20;0.20;;;2.90;99.90;;;3.01;nan;99257.72;4964629;28;20304;-68
2022/04/09 00:19:19;;;;;;;0.20;0.20;;;2.90;99.90;;;2.98;nan;99265.63;4960903;28;20274;-67
2022/04/09 00:21:46;;;;;;;0.20;0.20;;;2.90;99.90;;;2.99;nan;99263.88;4971909;28;20208;-68
2022/04/09 00:24:14;;;;;;;0.20;0.20;;;2.90;99.90;;;2.98;nan;99260.47;4960441;28;20220;-67
2022/04/09 00:26:41;;;;;;;2.00;1.63;;;2.90;99.90;;;3.03;nan;99276.50;4954823;28;20228;-67
2022/04/09 00:29:08;;;;;;;0.20;0.20;;;2.90;99.90;;;3.05;nan;99289.25;4937867;28;20280;-69
2022/04/09 00:31:35;;;;;;;0.20;0.20;;;2.90;99.90;;;3.01;nan;99298.13;4973175;28;20245;-68
2022/04/09 00:34:04;;;;;;;0.20;0.20;;;3.00;99.90;;;3.05;nan;99313.28;4971882;28;20203;-68
2022/04/09 00:36:31;;;;;;;0.20;0.20;;;2.90;99.90;;;3.09;nan;99325.06;4976189;28;20235;-68
2022/04/09 00:38:58;;;;;;;0.20;0.20;;;3.00;99.90;;;2.99;nan;99339.44;4964196;28;20216;-67
2022/04/09 00:41:25;;;;;;;0.20;0.20;;;3.00;99.90;;;3.22;nan;99352.63;4972941;28;20200;-67
2022/04/09 00:43:52;;;;;;;0.20;0.20;;;3.10;99.90;;;3.24;nan;99361.13;4966639;28;20207;-68
2022/04/09 00:46:18;;;;;;;0.20;0.20;;;3.20;99.90;;;3.24;nan;99366.28;4967508;28;20220;-67
2022/04/09 00:48:46;;;;;;;0.20;0.20;;;3.10;99.90;;;3.26;nan;99385.06;4966173;28;20215;-66
2022/04/09 00:51:13;;;;;;;0.20;0.20;;;3.20;99.90;;;3.29;nan;99387.44;4952028;28;20211;-67
2022/04/09 00:53:42;;;;;;;0.20;0.20;;;3.20;99.90;;;3.26;nan;99392.78;4966259;28;20197;-68
2022/04/09 00:58:55;;;;;;;0.20;0.20;;;3.20;99.90;;;3.29;nan;99408.06;4932672;29;20251;-74
2022/04/09 01:01:24;;;;;;;0.20;0.20;;;3.20;99.90;;;3.26;nan;99416.00;4947712;28;20209;-76
2022/04/09 01:03:52;;;;;;;0.20;0.20;;;3.20;99.90;;;3.26;nan;99418.56;4917143;29;20201;-73
2022/04/09 01:06:19;;;;;;;0.20;0.20;;;3.20;99.90;;;3.29;nan;99426.94;4934504;29;20205;-74
2022/04/09 01:08:47;;;;;;;0.20;0.20;;;3.20;99.90;;;3.34;nan;99417.19;4948476;29;20599;-74
2022/04/09 01:11:14;;;;;;;0.20;0.20;;;3.30;99.90;;;3.37;nan;99427.28;4941471;29;20208;-70
2022/04/09 01:13:44;;;;;;;0.20;0.20;;;3.30;99.90;;;3.38;nan;99428.97;4902261;29;20206;-74
2022/04/09 01:16:11;;;;;;;0.20;0.20;;;3.30;99.90;;;3.33;nan;99445.59;4916850;29;20205;-73
2022/04/09 01:18:41;;;;;;;0.20;0.20;;;3.30;99.90;;;3.33;nan;99443.88;4900905;29;20405;-73
2022/04/09 01:21:08;;;;;;;0.20;0.20;;;3.30;99.90;;;3.42;nan;99453.63;4932673;29;20225;-74
2022/04/09 01:23:36;;;;;;;0.20;0.20;;;3.40;99.90;;;3.46;nan;99459.41;4937603;29;20204;-75
2022/04/09 01:26:05;;;;;;;0.20;0.20;;;3.40;99.90;;;3.43;nan;99475.09;4937309;29;20208;-76
2022/04/09 01:28:33;;;;;;;0.20;0.20;;;3.40;99.90;;;3.49;nan;99478.09;4923731;29;20209;-74
2022/04/09 01:31:00;;;;;;;0.20;0.20;;;3.50;99.90;;;3.45;nan;99488.72;4918152;29;20205;-74
2022/04/09 01:33:27;;;;;;;0.20;0.20;;;3.40;99.90;;;3.45;nan;99496.44;4915993;29;20592;-74
2022/04/09 01:35:54;;;;;;;0.20;0.20;;;3.40;99.90;;;3.48;nan;99509.97;4933626;29;20567;-74
2022/04/09 01:38:21;;;;;;;0.20;0.20;;;3.50;99.90;;;3.55;nan;99510.44;4943916;29;20248;-75
2022/04/09 01:40:49;;;;;;;0.20;0.20;;;3.50;99.90;;;3.32;nan;99527.31;4933089;29;20255;-72
2022/04/09 01:43:16;;;;;;;0.20;0.20;;;3.40;99.90;;;3.47;nan;99525.53;4917553;29;20558;-70
2022/04/09 01:45:43;;;;;;;0.20;0.20;;;3.50;99.90;;;3.51;nan;99539.91;4901008;29;20209;-74
2022/04/09 01:48:10;;;;;;;0.20;0.20;;;3.50;99.90;;;3.42;nan;99554.19;4923820;29;20229;-70
2022/04/09 01:50:37;;;;;;;0.20;0.20;;;3.50;99.90;;;3.47;nan;99562.44;4935930;29;20205;-75
2022/04/09 01:53:04;;;;;;;0.20;0.20;;;3.50;99.90;;;3.46;nan;99565.97;4930946;29;20608;-73
2022/04/09 01:55:32;;;;;;;0.20;0.20;;;3.50;99.90;;;3.30;nan;99590.19;4931815;29;20209;-73
2022/04/09 01:58:00;;;;;;;0.20;0.20;;;3.30;99.90;;;3.38;nan;99585.38;4916543;29;20274;-73
2022/04/09 02:00:27;;;;;;;0.20;0.20;;;3.40;99.90;;;3.42;nan;99602.34;4931969;29;20255;-73
2022/04/09 02:02:54;;;;;;;0.20;0.20;;;3.40;99.90;;;3.39;nan;99597.34;4925762;29;20202;-74
2022/04/09 02:05:21;;;;;;;0.20;0.20;;;3.40;99.90;;;3.43;nan;99620.28;4934122;29;20213;-73
2022/04/09 02:07:48;;;;;;;0.20;0.20;;;3.30;99.90;;;3.46;nan;99622.69;4916718;29;20229;-73
2022/04/09 02:10:17;;;;;;;0.20;0.20;;;3.40;99.90;;;3.48;nan;99620.84;4915481;29;20205;-72
2022/04/09 02:12:44;;;;;;;0.20;0.20;;;3.40;99.90;;;3.49;nan;99634.59;4916545;29;20709;-73
2022/04/09 02:15:15;;;;;;;0.20;0.20;;;3.40;99.90;;;3.50;nan;99643.97;4937428;29;20348;-74
2022/04/09 02:17:43;;;;;;;0.20;0.20;;;3.40;99.90;;;3.51;nan;99646.47;4900168;29;20228;-75
2022/04/09 02:20:12;;;;;;;0.20;0.20;;;3.40;99.90;;;3.49;nan;99647.47;4947661;29;20225;-74
2022/04/09 02:22:42;;;;;;;0.20;0.20;;;3.40;99.90;;;3.53;nan;99656.69;4933892;29;20281;-74
2022/04/09 02:25:13;;;;;;;0.20;0.20;;;3.40;99.90;;;3.48;nan;99661.28;4915037;29;20597;-74
2022/04/09 02:27:40;;;;;;;0.20;0.20;;;3.40;99.90;;;3.48;nan;99656.97;4929216;29;20232;-74
2022/04/09 02:30:10;;;;;;;0.68;0.68;;;3.30;99.90;;;3.48;nan;99671.59;4937314;29;20538;-73
2022/04/09 02:32:51;;;;;;;0.20;0.20;;;3.40;99.90;;;3.48;nan;99671.59;4941375;29;20216;-73
2022/04/09 02:35:19;;;;;;;0.20;0.20;;;3.30;99.90;;;3.48;nan;99680.16;4916412;29;20205;-74
2022/04/09 02:37:46;;;;;;;0.20;0.20;;;3.30;99.90;;;3.43;nan;99686.53;5013156;23;20320;-73
2022/04/09 02:40:13;;;;;;;0.20;0.20;;;3.30;99.90;;;3.52;nan;99694.53;4955862;28;20220;-71
2022/04/09 02:42:41;;;;;;;0.20;0.20;;;3.50;99.90;;;3.44;nan;99701.06;4987346;28;20579;-74
2022/04/09 02:45:11;;;;;;;0.20;0.20;;;3.40;99.90;;;3.43;nan;99712.31;4961316;28;20624;-74
2022/04/09 02:47:38;;;;;;;0.20;0.20;;;3.30;99.90;;;3.49;nan;99717.09;4974792;28;20653;-73
2022/04/09 02:50:06;;;;;;;0.30;0.30;;;3.40;99.90;;;3.45;nan;99718.22;4986118;28;20203;-74
2022/04/09 02:52:39;;;;;;;0.20;0.20;;;3.40;99.90;;;3.47;nan;99734.41;4957033;28;20222;-74
2022/04/09 02:55:08;;;;;;;0.20;0.20;;;3.40;99.90;;;3.46;nan;99728.41;4953371;28;20204;-74
2022/04/09 02:58:14;;;;;;;0.20;0.20;;;3.40;99.90;;;3.37;nan;99734.09;5251081;23;20763;-74
2022/04/09 03:00:41;;;;;;;0.20;0.20;;;3.40;99.90;;;3.45;nan;99751.72;4941744;28;20226;-74
2022/04/09 03:03:12;;;;;;;0.20;0.20;;;3.40;99.90;;;3.44;nan;99755.22;4965649;28;20204;-74
2022/04/09 03:06:46;;;;;;;1.27;1.27;;;3.40;99.90;;;3.34;nan;99766.97;4971778;28;20686;-74
2022/04/09 03:09:13;;;;;;;0.20;0.20;;;3.30;99.90;;;3.36;nan;99770.28;4955956;28;20610;-72
2022/04/09 03:11:40;;;;;;;0.20;0.20;;;3.30;99.90;;;3.41;nan;99774.25;4953617;28;20531;-73
2022/04/09 03:14:07;;;;;;;0.20;0.20;;;3.30;99.90;;;3.45;nan;99775.75;4952502;28;20213;-73
2022/04/09 03:19:08;;;;;;;0.20;0.20;;;3.40;99.90;;;3.48;nan;99793.63;4977816;28;20215;-74
2022/04/09 03:21:35;;;;;;;0.20;0.20;;;3.40;99.90;;;3.50;nan;99793.53;4952370;28;20232;-74
2022/04/09 03:24:02;;;;;;;0.20;0.20;;;3.50;99.90;;;3.55;nan;99796.69;4971500;28;20680;-74
2022/04/09 03:29:04;;;;;;;0.20;0.20;;;3.40;99.90;;;3.37;nan;99806.28;4391500;23;20243;-74
2022/04/09 03:31:34;;;;;;;0.20;0.20;;;3.30;99.90;;;3.33;nan;99814.28;5008200;28;20210;-74
2022/04/09 03:34:06;;;;;;;0.20;0.20;;;3.20;99.90;;;3.20;nan;99814.13;5012315;28;20230;-73
2022/04/09 03:36:33;;;;;;;0.20;0.20;;;3.10;99.90;;;3.09;nan;99821.59;4994853;28;20234;-73
2022/04/09 03:39:00;;;;;;;0.20;0.20;;;3.00;99.90;;;3.05;nan;99820.94;4995053;28;20211;-75
2022/04/09 03:41:27;;;;;;;0.20;0.20;;;2.90;99.90;;;3.05;nan;99833.81;4995525;28;20297;-74
2022/04/09 03:43:54;;;;;;;0.20;0.20;;;2.90;99.90;;;3.00;nan;99835.81;4996620;28;20210;-76
2022/04/09 03:46:24;;;;;;;0.20;0.20;;;2.90;99.90;;;2.90;nan;99844.09;4995250;28;20203;-74
2022/04/09 03:48:51;;;;;;;0.20;0.20;;;2.80;99.90;;;2.96;nan;99854.13;5011035;28;20214;-74
2022/04/09 03:51:18;;;;;;;0.20;0.20;;;2.80;99.90;;;2.99;nan;99859.09;4988881;28;20207;-72
2022/04/09 03:53:45;;;;;;;0.20;0.20;;;2.80;99.90;;;3.01;nan;99863.25;5015208;28;20211;-74
2022/04/09 03:56:12;;;;;;;0.20;0.20;;;2.90;99.90;;;3.03;nan;99866.59;5013431;28;20199;-74
2022/04/09 03:58:39;;;;;;;0.20;0.20;;;2.90;99.90;;;3.01;nan;99871.00;5012893;28;20213;-74
2022/04/09 04:01:06;;;;;;;0.20;0.20;;;2.90;99.90;;;2.96;nan;99872.97;5011642;28;20223;-73
2022/04/09 04:03:34;;;;;;;0.20;0.20;;;2.80;99.90;;;2.98;nan;99883.22;5004183;28;20207;-71
2022/04/09 04:06:01;;;;;;;0.20;0.20;;;2.80;99.90;;;2.97;nan;99884.94;4990783;28;20663;-73
2022/04/09 04:08:28;;;;;;;0.20;0.20;;;2.80;99.90;;;3.00;nan;99897.66;4988665;28;20223;-73
2022/04/09 04:10:55;;;;;;;0.20;0.20;;;2.90;99.90;;;2.97;nan;99895.25;4981072;28;20219;-74
2022/04/09 04:13:22;;;;;;;0.20;0.20;;;2.80;99.90;;;2.94;nan;99902.28;5011625;28;20873;-74
2022/04/09 04:15:50;;;;;;;0.20;0.20;;;2.80;99.90;;;2.85;nan;99908.78;5012328;28;20283;-74
2022/04/09 04:18:17;;;;;;;0.20;0.20;;;2.70;99.90;;;2.85;nan;99913.94;4995488;28;20614;-74
2022/04/09 04:20:44;;;;;;;0.20;0.20;;;2.70;99.90;;;2.79;nan;99924.53;4991085;28;20217;-74
2022/04/09 04:23:11;;;;;;;0.20;0.20;;;2.60;99.90;;;2.75;nan;99925.59;5000927;28;20210;-73
2022/04/09 04:25:38;;;;;;;0.20;0.20;;;2.60;99.90;;;2.79;nan;99934.03;5010994;28;20209;-76
2022/04/09 04:28:05;;;;;;;0.20;0.20;;;2.70;99.90;;;2.70;nan;99935.31;5002431;28;20231;-75
2022/04/09 04:30:33;;;;;;;0.20;0.20;;;2.60;99.90;;;2.65;nan;99936.44;4992893;28;20691;-73
2022/04/09 04:33:00;;;;;;;0.20;0.20;;;2.50;99.90;;;2.66;nan;99938.13;5013653;28;20210;-74
2022/04/09 04:35:27;;;;;;;0.20;0.20;;;2.50;99.90;;;2.65;nan;99945.03;4976518;28;20210;-73
2022/04/09 04:37:54;;;;;;;0.90;0.88;;;2.50;99.90;;;2.70;nan;99944.78;5289873;23;20230;-74
2022/04/09 04:40:21;;;;;;;0.20;0.20;;;2.60;99.90;;;2.64;nan;99947.69;4994887;28;20700;-74
2022/04/09 04:42:50;;;;;;;0.20;0.20;;;2.50;99.90;;;2.66;nan;99951.81;5013269;28;20206;-74
2022/04/09 04:45:18;;;;;;;0.20;0.20;;;2.50;99.90;;;2.66;nan;99949.25;4984600;28;20198;-73
2022/04/09 04:47:48;;;;;;;0.20;0.20;;;2.50;99.90;;;2.63;nan;99956.31;5012908;28;20230;-73
2022/04/09 04:50:17;;;;;;;0.20;0.20;;;2.50;99.90;;;2.66;nan;99975.00;4998445;28;20678;-77
2022/04/09 04:52:44;;;;;;;2.15;1.95;;;2.50;99.90;;;2.72;nan;99973.88;5017308;28;20210;-75
2022/04/09 04:55:12;;;;;;;0.20;0.20;;;2.60;99.90;;;2.74;nan;99985.78;4995060;28;20650;-73
2022/04/09 04:57:44;;;;;;;0.20;0.20;;;2.60;99.90;;;2.80;nan;99994.94;5009878;28;20229;-74
2022/04/09 05:00:16;;;;;;;0.20;0.20;;;2.70;99.90;;;2.81;nan;100002.56;5032546;28;20225;-73
2022/04/09 05:02:44;;;;;;;0.20;0.20;;;2.70;99.90;;;2.85;nan;100008.44;5023618;28;20206;-73
2022/04/09 05:05:11;;;;;;;0.20;0.20;;;2.70;99.90;;;2.91;nan;100011.53;5007657;28;20214;-75
2022/04/09 05:07:49;;;;;;;0.20;0.20;;;2.80;99.90;;;2.95;nan;100015.63;5017065;28;20226;-75
2022/04/09 05:10:19;;;;;;;0.20;0.20;;;2.80;99.90;;;2.95;nan;100018.19;5026538;28;20209;-75
2022/04/09 05:12:48;;;;;;;0.20;0.20;;;2.80;99.90;;;2.97;nan;100025.84;5013012;28;20202;-75
2022/04/09 05:15:16;;;;;;;0.20;0.20;;;2.80;99.90;;;3.01;nan;100028.19;4995980;28;20232;-76
2022/04/09 05:17:44;;;;;;;0.20;0.20;;;2.90;99.90;;;3.09;nan;100036.34;5031391;28;20234;-76
2022/04/09 05:20:14;;;;;;;0.20;0.20;;;3.00;99.90;;;3.08;nan;100041.59;5016099;28;20265;-75
2022/04/09 05:22:49;;;;;;;0.20;0.20;;;3.00;99.90;;;3.17;nan;100048.88;5014406;28;20212;-76
2022/04/09 05:25:19;;;;;;;0.20;0.20;;;3.20;99.90;;;3.34;nan;100055.75;5013734;28;20198;-76
2022/04/09 05:27:49;;;;;;;0.20;0.20;;;3.50;99.90;;;3.56;nan;100056.28;5022911;28;20702;-76
2022/04/09 05:30:16;;;;;;;0.20;0.20;;;3.90;99.90;;;3.97;nan;100060.09;5018107;28;20206;-75
2022/04/09 05:32:43;;;;;;;0.30;0.30;;;4.30;99.90;;;4.43;nan;100066.97;4997632;28;20204;-76
2022/04/09 05:35:11;;;;;;;0.20;0.20;;;4.90;99.90;;;4.78;nan;100077.06;5024013;28;20209;-75
2022/04/09 05:37:44;;;;;;;0.20;0.20;;;5.30;99.90;;;5.07;nan;100084.00;4997422;28;20238;-77
2022/04/09 05:40:11;;;;;;;0.20;0.20;;;5.60;99.90;;;5.25;nan;100085.50;4982645;28;20218;-76
2022/04/09 05:42:39;;;;;;;0.20;0.20;;;5.90;99.90;;;5.11;nan;100090.66;5007747;28;20206;-76
2022/04/09 05:45:06;;;;;;;0.20;0.20;;;5.60;99.90;;;4.59;nan;100088.47;5031697;28;20209;-76
2022/04/09 05:47:33;;;;;;;0.20;0.20;;;5.10;99.90;;;4.44;nan;100106.56;5019960;28;20210;-75
2022/04/09 05:50:00;;;;;;;0.20;0.20;;;4.60;99.90;;;4.08;nan;100111.97;4995862;28;20198;-76
2022/04/09 05:52:27;;;;;;;0.20;0.20;;;4.30;99.90;;;3.98;nan;100118.56;5015396;28;20205;-75
2022/04/09 05:54:54;;;;;;;0.30;0.30;;;4.10;99.90;;;4.16;nan;100120.13;5014999;28;20194;-76
2022/04/09 05:57:21;;;;;;;0.20;0.20;;;4.60;99.90;;;4.65;nan;100129.47;4997362;28;20486;-76
2022/04/09 05:59:48;;;;;;;0.28;0.28;;;5.10;99.90;;;4.79;nan;100135.63;4965603;28;20213;-76
2022/04/09 06:02:15;;;;;;;0.85;0.85;;;5.40;99.90;;;4.72;nan;100141.13;5015295;28;20241;-76
2022/04/09 06:04:42;;;;;;;0.20;0.20;;;5.10;99.90;;;5.15;nan;100144.72;5014483;28;20208;-75
2022/04/09 06:07:13;;;;;;;0.20;0.20;;;5.50;99.90;;;5.58;nan;100153.38;5010614;28;20214;-73
2022/04/09 06:09:43;;;;;;;0.25;0.25;;;6.20;99.90;;;6.10;nan;100156.31;5034567;28;20229;-76
2022/04/09 06:12:12;;;;;;;0.20;0.20;;;6.70;99.90;;;6.41;nan;100158.66;5035300;28;20202;-78
2022/04/09 06:14:40;;;;;;;0.20;0.20;;;7.00;99.90;;;6.57;nan;100166.31;5034587;28;20212;-78
2022/04/09 06:17:06;;;;;;;0.20;0.20;;;7.00;99.90;;;6.98;nan;100177.50;4999999;28;20226;-74
2022/04/09 06:19:35;;;;;;;0.20;0.20;;;7.50;99.90;;;7.28;nan;100175.53;5032382;28;20209;-76
2022/04/09 06:22:02;;;;;;;0.50;0.50;;;7.90;99.90;;;7.42;nan;100180.63;5049050;28;20222;-74
2022/04/09 06:24:29;;;;;;;0.20;0.20;;;8.00;99.90;;;7.53;nan;100185.94;5006571;28;20616;-75
2022/04/09 06:26:56;;;;;;;0.20;0.20;;;8.10;99.90;;;8.22;nan;100192.50;5001314;28;20676;-76
2022/04/09 06:29:23;;;;;;;0.20;0.20;;;9.10;99.90;;;9.01;nan;100201.56;4993823;28;20982;-77
2022/04/09 06:31:53;;;;;;;0.20;0.20;;;10.00;99.90;;;9.35;nan;100200.75;5005453;28;20647;-77
2022/04/09 06:34:20;;;;;;;0.20;0.20;;;10.30;99.90;;;9.29;nan;100211.63;5030766;28;20719;-77
2022/04/09 06:36:47;;;;;;;0.20;0.20;;;10.20;99.90;;;8.82;nan;100203.81;4992027;28;20668;-76
2022/04/09 06:39:16;;;;;;;0.20;0.20;;;9.70;99.90;;;8.57;nan;100214.28;5028399;28;20760;-76
2022/04/09 06:41:44;;;;;;;0.20;0.20;;;9.20;99.90;;;8.70;nan;100220.31;4985919;28;20671;-75
2022/04/09 06:44:11;;;;;;;0.20;0.20;;;9.20;99.90;;;9.05;nan;100223.00;4981821;28;21011;-74
2022/04/09 06:46:43;;;;;;;0.20;0.20;;;9.80;99.90;;;9.37;nan;100219.69;5022241;28;20667;-78
2022/04/09 06:49:15;;;;;;;0.20;0.20;;;10.10;99.90;;;10.70;nan;100235.56;4983559;28;20645;-70
2022/04/09 06:51:44;;;;;;;0.20;0.20;;;11.90;99.90;;;12.58;nan;100233.81;4993046;28;20645;-77
2022/04/09 06:54:11;;;;;;;0.30;0.20;;;14.60;99.60;;;14.38;nan;100234.00;5023467;28;21169;-74
2022/04/09 06:56:38;;;;;;;0.30;0.30;;;17.00;90.00;;;15.85;nan;100240.66;5122373;23;21902;-67
2022/04/09 06:59:05;;;;;;;0.30;0.27;;;18.90;75.80;;;17.01;nan;100245.22;4974469;28;20650;-67
2022/04/09 07:01:32;;;;;;;0.30;0.20;;;20.30;67.40;;;18.24;nan;100250.41;4988297;28;20717;-67
2022/04/09 07:04:00;;;;;;;0.60;0.50;;;21.50;61.70;;;19.06;nan;100244.69;4994442;28;21186;-67
2022/04/09 07:06:30;;;;;;;0.30;0.30;;;22.50;57.70;;;19.80;nan;100251.97;4975389;28;21193;-67
2022/04/09 07:08:57;;;;;;;0.30;0.30;;;23.10;55.00;;;20.28;nan;100245.41;5017415;28;20625;-67
2022/04/09 07:11:24;;;;;;;0.30;0.30;;;23.60;52.30;;;20.99;nan;100248.19;5013618;28;20699;-67
2022/04/09 07:13:51;;;;;;;0.30;0.30;;;24.20;50.80;;;21.49;nan;100249.97;5018951;28;20945;-67
2022/04/09 07:16:18;;;;;;;0.30;0.30;;;24.70;49.90;;;21.60;nan;100242.34;5003445;28;21008;-67
2022/04/09 07:18:45;;;;;;;0.30;0.30;;;24.80;48.40;;;21.89;nan;100253.84;4996943;28;20671;-68
2022/04/09 07:21:12;;;;;;;0.30;0.30;;;24.70;48.10;;;22.12;nan;100251.78;5020622;28;20676;-67
2022/04/09 07:23:39;;;;;;;0.30;0.30;;;24.80;47.70;;;22.69;nan;100256.84;5031378;28;20747;-65
2022/04/09 07:26:06;;;;;;;0.30;0.30;;;25.10;47.20;;;22.98;nan;100249.41;5015776;28;20636;-67
2022/04/09 07:28:33;;;;;;;0.30;0.30;;;25.20;46.80;;;23.25;nan;100252.16;5012114;28;20661;-68
2022/04/09 07:31:00;;;;;;;0.30;0.30;;;25.40;46.60;;;23.10;nan;100249.66;5014815;28;20634;-67
2022/04/09 07:33:27;;;;;;;0.30;0.30;;;25.30;46.00;;;22.77;nan;100244.22;4977331;28;21388;-68
2022/04/09 07:35:56;;;;;;;0.30;0.30;;;24.80;46.10;;;22.62;nan;100248.84;5010329;28;21234;-67
2022/04/09 07:38:23;;;;;;;0.30;0.30;;;24.50;46.10;;;22.43;nan;100262.81;5012838;28;20668;-67
2022/04/09 07:40:50;;;;;;;0.50;0.50;;;24.10;46.80;;;22.44;nan;100256.50;5021459;28;20645;-68
2022/04/09 07:43:17;;;;;;;0.30;0.30;;;23.80;47.40;;;22.32;nan;100260.69;5015814;28;20642;-68
2022/04/09 07:45:44;;;;;;;0.30;0.30;;;23.50;47.70;;;22.05;nan;100265.00;4994054;28;20633;-68
2022/04/09 07:48:11;;;;;;;0.30;0.30;;;23.40;47.60;;;21.85;nan;100268.53;5019477;28;21041;-67
2022/04/09 07:50:39;;;;;;;0.30;0.30;;;23.30;47.50;;;21.81;nan;100272.53;4997846;28;20625;-67
2022/04/09 07:53:11;;;;;;;0.30;0.30;;;23.00;47.60;;;21.59;nan;100274.41;5010939;28;20633;-68
2022/04/09 07:55:38;;;;;;;1.37;1.27;;;22.80;47.70;;;19.77;nan;100287.56;5012938;28;20636;-67
2022/04/09 07:58:06;;;;;;;0.30;0.30;;;21.50;49.30;;;20.73;nan;100287.63;5005568;28;20666;-68
2022/04/09 08:00:34;;;;;;;0.30;0.30;;;21.70;49.70;;;20.97;nan;100292.66;5001425;28;20640;-68
2022/04/09 08:03:01;;;;;;;0.30;0.30;;;22.00;49.30;;;20.96;nan;100283.03;4989530;28;20664;-68
2022/04/09 08:05:28;;;;;;;0.30;0.30;;;22.00;49.50;;;20.64;nan;100294.88;5009571;28;21753;-68
2022/04/09 08:07:57;;;;;;;0.30;0.30;;;21.60;49.30;;;21.19;nan;100298.88;5011615;28;20653;-68
2022/04/09 08:10:24;;;;;;;0.30;0.30;;;21.90;49.70;;;21.12;nan;100295.31;5009781;28;20637;-68
2022/04/09 08:12:53;;;;;;;0.30;0.30;;;22.00;49.40;;;20.68;nan;100300.59;5008021;28;20650;-68
2022/04/09 08:15:21;;;;;;;0.40;0.40;;;21.70;48.90;;;21.22;nan;100309.09;5013613;28;21271;-67
2022/04/09 08:17:48;;;;;;;0.30;0.30;;;22.30;48.30;;;20.73;nan;100309.69;5003578;28;20675;-68
2022/04/09 08:20:19;;;;;;;0.30;0.30;;;21.90;48.30;;;19.16;nan;100303.47;5015210;28;20623;-68
2022/04/09 08:22:47;;;;;;;0.30;0.30;;;20.80;48.90;;;20.02;nan;100306.69;4995896;28;20688;-68
2022/04/09 08:25:14;;;;;;;0.40;0.40;;;21.00;49.20;;;21.18;nan;100310.47;5027500;28;20609;-68
2022/04/09 08:27:43;;;;;;;0.30;0.30;;;21.80;49.10;;;22.12;nan;100316.38;5012521;28;20652;-68
2022/04/09 08:30:11;;;;;;;0.30;0.30;;;22.80;47.70;;;23.02;nan;100319.81;4992363;28;21168;-68
2022/04/09 08:32:38;;;;;;;0.30;0.30;;;23.80;46.60;;;23.70;nan;100318.03;5012226;28;21223;-66
2022/04/09 08:35:05;;;;;;;0.30;0.30;;;24.70;45.50;;;24.45;nan;100321.16;5005681;28;20625;-68
2022/04/09 08:37:32;;;;;;;0.30;0.30;;;25.60;44.10;;;24.13;nan;100321.97;5019984;28;20660;-68
2022/04/09 08:39:59;;;;;;;0.30;0.30;;;26.20;43.50;;;25.74;nan;100317.41;5012973;28;20641;-68
2022/04/09 08:42:28;;;;;;;0.30;0.30;;;27.10;43.20;;;26.17;nan;100329.00;5010373;28;20665;-68
2022/04/09 08:44:55;;;;;;;0.30;0.30;;;28.10;41.10;;;27.14;nan;100325.56;5013679;28;20642;-68
2022/04/09 08:47:25;;;;;;;0.30;0.30;;;29.00;40.40;;;27.47;nan;100320.63;5013050;28;20671;-67
2022/04/09 08:49:54;;;;;;;0.60;0.60;;;29.60;39.50;;;27.43;nan;100324.00;4994568;28;20994;-68
2022/04/09 08:52:23;;;;;;;0.30;0.30;;;30.20;39.00;;;28.47;nan;100332.28;5025104;28;20711;-68
2022/04/09 08:54:50;;;;;;;0.30;0.30;;;31.00;37.80;;;28.69;nan;100332.50;5001484;28;20640;-68
2022/04/09 08:57:17;;;;;;;0.30;0.30;;;31.30;37.60;;;28.68;nan;100323.66;4992418;28;21283;-72
2022/04/09 08:59:44;;;;;;;0.30;0.30;;;31.90;36.80;;;29.67;nan;100325.09;5008347;28;20644;-68
2022/04/09 09:02:11;;;;;;;0.40;0.40;;;32.60;36.00;;;30.24;nan;100336.59;5016569;28;20669;-68
2022/04/09 09:04:39;;;;;;;0.30;0.30;;;33.30;35.90;;;30.88;nan;100333.25;5003371;28;20640;-67
2022/04/09 09:07:21;;;;;;;0.30;0.30;;;34.10;35.10;;;30.89;nan;100337.59;5009710;28;20657;-69
2022/04/09 09:09:51;;;;;;;0.30;0.30;;;34.80;33.90;;;30.95;nan;100335.78;5028310;28;20632;-68
2022/04/09 09:12:30;;;;;;;0.40;0.40;;;35.40;33.40;;;31.55;nan;100346.47;5015559;28;20642;-68
2022/04/09 09:14:58;;;;;;;0.30;0.30;;;35.40;33.30;;;31.64;nan;100339.56;5025355;28;20647;-69
2022/04/09 09:17:29;;;;;;;0.30;0.30;;;35.70;33.20;;;31.86;nan;100348.41;5015078;28;20659;-68
2022/04/09 09:19:58;;;;;;;0.40;0.40;;;35.90;32.50;;;31.46;nan;100350.69;5005461;28;21200;-68
2022/04/09 09:22:39;;;;;;;0.40;0.40;;;35.60;32.60;;;30.88;nan;100349.41;5009532;28;20668;-68
2022/04/09 09:25:09;;;;;;;0.40;0.40;;;35.90;32.10;;;31.88;nan;100359.75;5005340;28;20624;-69
2022/04/09 09:27:39;;;;;;;0.40;0.40;;;36.20;32.30;;;30.09;nan;100349.81;5009682;28;20668;-68
2022/04/09 09:30:09;;;;;;;0.40;0.40;;;36.30;31.60;;;;;;5025446;28;20640;-68
2022/04/09 09:32:36;;;;;;;0.30;0.30;;;35.90;32.10;;;;;;4990542;28;20700;-68
2022/04/09 09:35:09;;;;;;;0.30;0.30;;;36.40;31.80;;;;;;4993888;28;21048;-69
2022/04/09 09:37:37;;;;;;;0.30;0.30;;;37.00;31.60;;;;;;5013511;28;21310;-68
2022/04/09 09:40:05;;;;;;;0.40;0.40;;;37.60;31.40;;;;;;5016460;28;20629;-68
2022/04/09 09:42:35;;;;;;;0.40;0.40;;;38.10;30.80;;;;;;5008522;28;20781;-68
2022/04/09 09:45:02;;;;;;;0.57;0.57;;;38.70;30.50;;;;;;5025146;28;21066;-69
2022/04/09 09:47:29;;;;;;;0.30;0.30;;;38.50;30.40;;;;;;5010381;28;20663;-67
2022/04/09 09:49:56;;;;;;;0.40;0.40;;;38.40;30.40;;;;;;5022447;28;21242;-69
2022/04/09 09:52:24;;;;;;;0.40;0.40;;;38.80;30.10;;;;;;5021549;28;20743;-67
2022/04/09 09:54:59;;;;;;;0.43;0.43;;;38.80;30.00;;;34.28;nan;100372.03;4993425;28;20667;-68
2022/04/09 09:57:29;;;;;;;0.40;0.40;;;38.90;30.00;;;33.52;nan;100366.50;5014377;28;20668;-68
2022/04/09 09:59:59;;;;;;;0.40;0.40;;;38.60;29.70;;;34.65;nan;100366.31;4997394;28;20645;-69
2022/04/09 10:02:30;;;;;;;0.40;0.40;;;38.70;29.90;;;33.06;nan;100380.91;4999243;28;20690;-69
2022/04/09 10:04:58;;;;;;;0.30;0.30;;;38.00;30.00;;;34.45;nan;100388.78;5014972;28;20636;-68
2022/04/09 10:07:25;;;;;;;0.30;0.30;;;38.40;30.00;;;34.51;nan;100382.31;5015064;28;21251;-68
2022/04/09 10:09:53;;;;;;;0.30;0.30;;;38.50;30.00;;;34.25;nan;100383.38;5019124;28;20637;-69
2022/04/09 10:12:24;;;;;;;0.33;0.33;;;38.40;30.00;;;34.82;nan;100389.28;5005804;28;20630;-68
2022/04/09 10:14:55;;;;;;;0.40;0.40;;;38.70;29.90;;;32.73;nan;100381.25;4971830;28;20633;-68
2022/04/09 10:17:24;;;;;;;0.30;0.30;;;37.50;30.10;;;32.99;nan;100388.44;4995318;28;20653;-68
2022/04/09 10:19:57;;;;;;;0.30;0.30;;;37.70;29.80;;;33.34;nan;100382.38;5007716;28;20628;-68
2022/04/09 10:22:38;;;;;;;0.30;0.30;;;37.60;30.00;;;29.38;nan;100377.25;5024938;28;20677;-68
2022/04/09 10:25:07;;;;;;;0.30;0.30;;;35.50;30.10;;;29.89;nan;100374.47;5009331;28;21210;-68
2022/04/09 10:27:43;;;;;;;0.77;0.73;;;34.90;31.00;;;28.72;nan;100372.31;5024054;28;21323;-68
2022/04/09 10:30:16;;;;;;;0.40;0.30;;;34.10;31.60;;;28.18;nan;100368.06;4994750;28;20633;-69
2022/04/09 10:32:50;;;;;;;0.40;0.30;;;33.10;31.90;;;25.16;nan;100370.06;5018001;28;20644;-68
2022/04/09 10:35:45;;;;;;;0.40;0.30;;;30.00;33.60;;;24.60;nan;100382.25;5011308;28;20642;-68
2022/04/09 10:38:15;;;;;;;0.40;0.30;;;28.50;34.90;;;22.29;nan;100362.09;5018561;28;20667;-69
2022/04/09 10:40:55;;;;;;;0.40;0.30;;;26.00;36.80;;;21.53;nan;100368.88;5010466;28;21211;-68
2022/04/09 10:43:22;;;;;;;0.30;0.30;;;23.70;39.30;;;19.73;nan;100373.63;5004013;28;20672;-68
2022/04/09 10:46:00;;;;;;;0.30;0.30;;;21.50;41.70;;;18.44;nan;100370.59;5002876;28;20631;-72
2022/04/09 10:48:42;;;;;;;0.30;0.30;;;19.80;44.20;;;18.06;nan;100372.03;5012700;28;20675;-67
2022/04/09 10:51:11;;;;;;;0.30;0.30;;;18.70;46.90;;;17.68;nan;100376.13;5021990;28;20648;-67
2022/04/09 10:53:59;;;;;;;0.30;0.30;;;18.30;48.10;;;17.51;nan;100366.53;5007741;28;20634;-69
2022/04/09 10:56:31;;;;;;;0.30;0.30;;;18.00;49.00;;;16.28;nan;100373.06;4995778;28;20644;-67
2022/04/09 10:59:13;;;;;;;0.30;0.30;;;16.90;50.70;;;16.12;nan;100372.13;5001812;28;21271;-68